sensor_id;sensor_type;location;lat;lon;timestamp;pressure;altitude;pressure_sealevel;temperature;humidity
29315;BME280;16320;53.954;9.506;2023-04-25T00:01:04;100221.69;;;6.89;100.00
29315;BME280;16320;53.954;9.506;2023-04-25T00:04:09;100221.06;;;6.84;100.00
29315;BME280;16320;53.954;9.506;2023-04-25T00:07:14;100217.72;;;6.81;100.00
29315;BME280;16320;53.954;9.506;2023-04-25T00:10:19;100216.56;;;6.67;100.00
29315;BME280;16320;53.954;9.506;2023-04-25T00:13:25;100218.66;;;6.80;100.00
29315;BME280;16320;53.954;9.506;2023-04-25T00:16:30;100216.28;;;6.73;100.00
29315;BME280;16320;53.954;9.506;2023-04-25T00:19:38;100212.66;;;6.77;100.00
29315;BME280;16320;53.954;9.506;2023-04-25T00:22:42;100222.16;;;6.78;100.00
29315;BME280;16320;53.954;9.506;2023-04-25T00:25:48;100212.78;;;6.74;100.00
29315;BME280;16320;53.954;9.506;2023-04-25T00:28:53;100220.47;;;6.77;100.00
29315;BME280;16320;53.954;9.506;2023-04-25T00:31:57;100211.72;;;6.78;100.00
29315;BME280;16320;53.954;9.506;2023-04-25T00:35:02;100211.75;;;6.58;100.00
29315;BME280;16320;53.954;9.506;2023-04-25T00:38:06;100204.56;;;6.63;100.00
29315;BME280;16320;53.954;9.506;2023-04-25T00:41:10;100215.28;;;6.57;100.00
29315;BME280;16320;53.954;9.506;2023-04-25T00:44:15;100211.75;;;6.58;100.00
29315;BME280;16320;53.954;9.506;2023-04-25T00:47:21;100193.88;;;6.49;100.00
29315;BME280;16320;53.954;9.506;2023-04-25T00:50:26;100199.63;;;6.57;100.00
29315;BME280;16320;53.954;9.506;2023-04-25T00:53:30;100192.06;;;6.51;100.00
29315;BME280;16320;53.954;9.506;2023-04-25T00:56:36;100188.59;;;6.50;100.00
29315;BME280;16320;53.954;9.506;2023-04-25T00:59:45;100191.28;;;6.49;100.00
29315;BME280;16320;53.954;9.506;2023-04-25T01:02:51;100193.75;;;6.52;100.00
29315;BME280;16320;53.954;9.506;2023-04-25T01:05:56;100195.56;;;6.50;100.00
29315;BME280;16320;53.954;9.506;2023-04-25T01:09:00;100198.16;;;6.50;100.00
29315;BME280;16320;53.954;9.506;2023-04-25T01:12:05;100194.84;;;6.46;100.00
29315;BME280;16320;53.954;9.506;2023-04-25T01:15:10;100193.38;;;6.40;100.00
29315;BME280;16320;53.954;9.506;2023-04-25T01:18:15;100176.72;;;6.43;100.00
29315;BME280;16320;53.954;9.506;2023-04-25T01:21:20;100179.47;;;6.40;100.00
29315;BME280;16320;53.954;9.506;2023-04-25T01:24:25;100174.19;;;6.41;100.00
29315;BME280;16320;53.954;9.506;2023-04-25T01:27:30;100179.25;;;6.45;100.00
29315;BME280;16320;53.954;9.506;2023-04-25T01:30:34;100169.38;;;6.32;100.00
29315;BME280;16320;53.954;9.506;2023-04-25T01:33:39;100164.03;;;6.35;100.00
29315;BME280;16320;53.954;9.506;2023-04-25T01:36:44;100164.09;;;6.34;100.00
29315;BME280;16320;53.954;9.506;2023-04-25T01:39:49;100171.19;;;6.30;100.00
29315;BME280;16320;53.954;9.506;2023-04-25T01:42:54;100162.06;;;6.20;100.00
29315;BME280;16320;53.954;9.506;2023-04-25T01:45:58;100170.66;;;6.22;100.00
29315;BME280;16320;53.954;9.506;2023-04-25T01:49:03;100180.19;;;6.23;100.00
29315;BME280;16320;53.954;9.506;2023-04-25T01:52:08;100173.28;;;6.22;100.00
29315;BME280;16320;53.954;9.506;2023-04-25T01:55:12;100182.28;;;6.15;100.00
29315;BME280;16320;53.954;9.506;2023-04-25T01:58:16;100183.31;;;6.11;100.00
29315;BME280;16320;53.954;9.506;2023-04-25T02:01:20;100183.25;;;6.12;100.00
29315;BME280;16320;53.954;9.506;2023-04-25T02:04:25;100187.50;;;6.15;100.00
29315;BME280;16320;53.954;9.506;2023-04-25T02:07:29;100185.19;;;6.07;100.00
29315;BME280;16320;53.954;9.506;2023-04-25T02:10:34;100186.53;;;6.17;100.00
29315;BME280;16320;53.954;9.506;2023-04-25T02:13:38;100192.06;;;6.10;100.00
29315;BME280;16320;53.954;9.506;2023-04-25T02:16:43;100187.88;;;6.05;100.00
29315;BME280;16320;53.954;9.506;2023-04-25T02:19:48;100189.84;;;6.21;100.00
29315;BME280;16320;53.954;9.506;2023-04-25T02:22:52;100178.78;;;6.16;100.00
29315;BME280;16320;53.954;9.506;2023-04-25T02:25:57;100174.78;;;6.07;100.00
29315;BME280;16320;53.954;9.506;2023-04-25T02:29:01;100178.91;;;6.13;100.00
29315;BME280;16320;53.954;9.506;2023-04-25T02:32:06;100176.22;;;6.14;100.00
29315;BME280;16320;53.954;9.506;2023-04-25T02:35:35;100182.03;;;6.21;100.00
29315;BME280;16320;53.954;9.506;2023-04-25T02:38:40;100183.97;;;6.16;100.00
29315;BME280;16320;53.954;9.506;2023-04-25T02:41:45;100181.50;;;6.13;100.00
29315;BME280;16320;53.954;9.506;2023-04-25T02:44:49;100174.19;;;6.00;100.00
29315;BME280;16320;53.954;9.506;2023-04-25T02:47:53;100175.88;;;6.01;100.00
29315;BME280;16320;53.954;9.506;2023-04-25T02:50:58;100185.06;;;6.10;100.00
29315;BME280;16320;53.954;9.506;2023-04-25T02:54:03;100184.34;;;6.07;100.00
29315;BME280;16320;53.954;9.506;2023-04-25T02:57:08;100172.34;;;6.02;100.00
29315;BME280;16320;53.954;9.506;2023-04-25T03:00:12;100185.06;;;6.10;100.00
29315;BME280;16320;53.954;9.506;2023-04-25T03:03:18;100179.28;;;6.03;100.00
29315;BME280;16320;53.954;9.506;2023-04-25T03:06:25;100176.53;;;6.07;100.00
29315;BME280;16320;53.954;9.506;2023-04-25T03:09:30;100175.75;;;6.04;100.00
29315;BME280;16320;53.954;9.506;2023-04-25T03:12:34;100182.53;;;6.09;100.00
29315;BME280;16320;53.954;9.506;2023-04-25T03:15:39;100180.28;;;5.99;100.00
29315;BME280;16320;53.954;9.506;2023-04-25T03:18:43;100178.50;;;6.01;100.00
29315;BME280;16320;53.954;9.506;2023-04-25T03:21:48;100180.81;;;6.08;100.00
29315;BME280;16320;53.954;9.506;2023-04-25T03:24:52;100176.00;;;5.98;100.00
29315;BME280;16320;53.954;9.506;2023-04-25T03:27:57;100181.22;;;5.98;100.00
29315;BME280;16320;53.954;9.506;2023-04-25T03:31:01;100177.06;;;5.93;100.00
29315;BME280;16320;53.954;9.506;2023-04-25T03:34:06;100170.66;;;6.01;100.00
29315;BME280;16320;53.954;9.506;2023-04-25T03:37:10;100176.94;;;5.96;100.00
29315;BME280;16320;53.954;9.506;2023-04-25T03:40:15;100180.28;;;5.99;100.00
29315;BME280;16320;53.954;9.506;2023-04-25T03:43:19;100179.41;;;6.00;100.00
29315;BME280;16320;53.954;9.506;2023-04-25T03:46:23;100179.41;;;6.00;100.00
29315;BME280;16320;53.954;9.506;2023-04-25T03:49:28;100186.13;;;6.06;100.00
29315;BME280;16320;53.954;9.506;2023-04-25T03:52:32;100187.88;;;6.05;100.00
29315;BME280;16320;53.954;9.506;2023-04-25T03:55:37;100194.91;;;6.03;100.00
29315;BME280;16320;53.954;9.506;2023-04-25T03:58:41;100181.94;;;6.02;100.00
29315;BME280;16320;53.954;9.506;2023-04-25T04:01:45;100185.56;;;5.98;100.00
29315;BME280;16320;53.954;9.506;2023-04-25T04:04:50;100184.94;;;5.91;100.00
29315;BME280;16320;53.954;9.506;2023-04-25T04:07:55;100189.94;;;5.97;100.00
29315;BME280;16320;53.954;9.506;2023-04-25T04:11:00;100197.53;;;6.03;100.00
29315;BME280;16320;53.954;9.506;2023-04-25T04:14:08;100196.75;;;6.01;100.00
29315;BME280;16320;53.954;9.506;2023-04-25T04:17:14;100207.94;;;6.03;100.00
29315;BME280;16320;53.954;9.506;2023-04-25T04:20:18;100212.25;;;6.04;100.00
29315;BME280;16320;53.954;9.506;2023-04-25T04:23:23;100228.56;;;6.10;100.00
29315;BME280;16320;53.954;9.506;2023-04-25T04:26:28;100230.75;;;5.98;100.00
29315;BME280;16320;53.954;9.506;2023-04-25T04:29:33;100236.63;;;6.03;100.00
29315;BME280;16320;53.954;9.506;2023-04-25T04:32:37;100263.94;;;5.93;100.00
29315;BME280;16320;53.954;9.506;2023-04-25T04:35:41;100288.59;;;5.62;100.00
29315;BME280;16320;53.954;9.506;2023-04-25T04:38:47;100305.13;;;5.38;100.00
29315;BME280;16320;53.954;9.506;2023-04-25T04:41:51;100286.63;;;5.22;100.00
29315;BME280;16320;53.954;9.506;2023-04-25T04:44:56;100291.72;;;5.25;100.00
29315;BME280;16320;53.954;9.506;2023-04-25T04:48:03;100296.16;;;4.98;100.00
29315;BME280;16320;53.954;9.506;2023-04-25T04:51:09;100304.28;;;4.88;100.00
29315;BME280;16320;53.954;9.506;2023-04-25T04:54:14;100307.66;;;4.90;100.00
29315;BME280;16320;53.954;9.506;2023-04-25T04:57:19;100311.00;;;4.95;100.00
29315;BME280;16320;53.954;9.506;2023-04-25T05:00:23;100311.69;;;5.01;100.00
29315;BME280;16320;53.954;9.506;2023-04-25T05:03:29;100310.50;;;5.09;100.00
29315;BME280;16320;53.954;9.506;2023-04-25T05:06:34;100316.63;;;5.07;100.00
29315;BME280;16320;53.954;9.506;2023-04-25T05:09:39;100327.72;;;5.13;100.00
29315;BME280;16320;53.954;9.506;2023-04-25T05:12:43;100329.41;;;5.14;100.00
29315;BME280;16320;53.954;9.506;2023-04-25T05:15:47;100331.94;;;5.16;100.00
29315;BME280;16320;53.954;9.506;2023-04-25T05:18:52;100317.81;;;5.23;100.00
29315;BME280;16320;53.954;9.506;2023-04-25T05:21:56;100335.00;;;5.27;100.00
29315;BME280;16320;53.954;9.506;2023-04-25T05:25:01;100341.00;;;5.29;100.00
29315;BME280;16320;53.954;9.506;2023-04-25T05:28:05;100330.31;;;5.37;100.00
29315;BME280;16320;53.954;9.506;2023-04-25T05:31:10;100337.88;;;5.45;100.00
29315;BME280;16320;53.954;9.506;2023-04-25T05:34:15;100335.81;;;5.53;100.00
29315;BME280;16320;53.954;9.506;2023-04-25T05:37:21;100344.22;;;5.61;100.00
29315;BME280;16320;53.954;9.506;2023-04-25T05:40:25;100337.06;;;5.66;100.00
29315;BME280;16320;53.954;9.506;2023-04-25T05:43:30;100338.56;;;5.74;100.00
29315;BME280;16320;53.954;9.506;2023-04-25T05:46:34;100334.78;;;5.81;100.00
29315;BME280;16320;53.954;9.506;2023-04-25T05:49:38;100329.56;;;5.81;100.00
29315;BME280;16320;53.954;9.506;2023-04-25T05:52:43;100333.56;;;5.90;100.00
29315;BME280;16320;53.954;9.506;2023-04-25T05:55:47;100329.91;;;5.95;100.00
29315;BME280;16320;53.954;9.506;2023-04-25T05:58:51;100328.09;;;5.97;100.00
29315;BME280;16320;53.954;9.506;2023-04-25T06:01:56;100328.94;;;5.98;100.00
29315;BME280;16320;53.954;9.506;2023-04-25T06:05:01;100328.00;;;6.00;100.00
29315;BME280;16320;53.954;9.506;2023-04-25T06:08:08;100327.03;;;6.03;100.00
29315;BME280;16320;53.954;9.506;2023-04-25T06:11:13;100342.13;;;6.17;100.00
29315;BME280;16320;53.954;9.506;2023-04-25T06:14:17;100343.00;;;6.17;100.00
29315;BME280;16320;53.954;9.506;2023-04-25T06:17:21;100348.94;;;6.21;100.00
29315;BME280;16320;53.954;9.506;2023-04-25T06:20:26;100344.50;;;6.23;100.00
29315;BME280;16320;53.954;9.506;2023-04-25T06:23:30;100340.22;;;6.20;100.00
29315;BME280;16320;53.954;9.506;2023-04-25T06:26:34;100342.31;;;6.34;100.00
29315;BME280;16320;53.954;9.506;2023-04-25T06:29:39;100341.88;;;6.45;100.00
29315;BME280;16320;53.954;9.506;2023-04-25T06:32:43;100349.50;;;6.50;100.00
29315;BME280;16320;53.954;9.506;2023-04-25T06:35:47;100346.56;;;6.57;100.00
29315;BME280;16320;53.954;9.506;2023-04-25T06:38:52;100347.94;;;6.46;100.00
29315;BME280;16320;53.954;9.506;2023-04-25T06:41:56;100356.94;;;6.59;100.00
29315;BME280;16320;53.954;9.506;2023-04-25T06:45:01;100352.91;;;6.52;100.00
29315;BME280;16320;53.954;9.506;2023-04-25T06:48:05;100342.72;;;6.46;100.00
29315;BME280;16320;53.954;9.506;2023-04-25T06:51:09;100355.94;;;6.41;100.00
29315;BME280;16320;53.954;9.506;2023-04-25T06:54:14;100365.03;;;6.53;100.00
29315;BME280;16320;53.954;9.506;2023-04-25T06:57:18;100364.00;;;6.57;100.00
29315;BME280;16320;53.954;9.506;2023-04-25T07:00:23;100364.66;;;6.62;100.00
29315;BME280;16320;53.954;9.506;2023-04-25T07:03:27;100366.09;;;6.69;100.00
29315;BME280;16320;53.954;9.506;2023-04-25T07:06:32;100376.41;;;6.72;100.00
29315;BME280;16320;53.954;9.506;2023-04-25T07:09:37;100376.16;;;6.78;100.00
29315;BME280;16320;53.954;9.506;2023-04-25T07:12:41;100364.94;;;6.76;100.00
29315;BME280;16320;53.954;9.506;2023-04-25T07:15:46;100358.75;;;7.00;100.00
29315;BME280;16320;53.954;9.506;2023-04-25T07:18:52;100358.31;;;7.10;100.00
29315;BME280;16320;53.954;9.506;2023-04-25T07:21:56;100352.00;;;7.14;100.00
29315;BME280;16320;53.954;9.506;2023-04-25T07:25:00;100341.44;;;7.18;100.00
29315;BME280;16320;53.954;9.506;2023-04-25T07:28:05;100339.75;;;7.17;100.00
29315;BME280;16320;53.954;9.506;2023-04-25T07:31:09;100339.75;;;7.17;100.00
29315;BME280;16320;53.954;9.506;2023-04-25T07:34:14;100351.63;;;7.03;100.00
29315;BME280;16320;53.954;9.506;2023-04-25T07:37:18;100375.66;;;6.91;100.00
29315;BME280;16320;53.954;9.506;2023-04-25T07:40:25;100406.22;;;6.45;100.00
29315;BME280;16320;53.954;9.506;2023-04-25T07:43:29;100415.47;;;6.08;100.00
29315;BME280;16320;53.954;9.506;2023-04-25T07:46:33;100417.25;;;5.83;100.00
29315;BME280;16320;53.954;9.506;2023-04-25T07:49:38;100424.66;;;5.71;100.00
29315;BME280;16320;53.954;9.506;2023-04-25T07:52:43;100435.53;;;5.82;100.00
29315;BME280;16320;53.954;9.506;2023-04-25T07:55:47;100437.38;;;6.03;100.00
29315;BME280;16320;53.954;9.506;2023-04-25T07:58:52;100445.91;;;6.31;100.00
29315;BME280;16320;53.954;9.506;2023-04-25T08:01:56;100444.28;;;6.50;100.00
29315;BME280;16320;53.954;9.506;2023-04-25T08:05:02;100442.06;;;6.63;100.00
29315;BME280;16320;53.954;9.506;2023-04-25T08:08:07;100446.16;;;6.91;100.00
29315;BME280;16320;53.954;9.506;2023-04-25T08:11:11;100445.63;;;7.03;100.00
29315;BME280;16320;53.954;9.506;2023-04-25T08:14:16;100437.34;;;7.14;100.00
29315;BME280;16320;53.954;9.506;2023-04-25T08:17:20;100447.50;;;7.22;100.00
29315;BME280;16320;53.954;9.506;2023-04-25T08:20:25;100457.41;;;7.34;100.00
29315;BME280;16320;53.954;9.506;2023-04-25T08:23:30;100450.88;;;7.24;100.00
29315;BME280;16320;53.954;9.506;2023-04-25T08:26:35;100441.84;;;6.90;100.00
29315;BME280;16320;53.954;9.506;2023-04-25T08:29:42;100449.44;;;6.52;100.00
29315;BME280;16320;53.954;9.506;2023-04-25T08:32:46;100448.69;;;6.48;100.00
29315;BME280;16320;53.954;9.506;2023-04-25T08:35:51;100437.84;;;6.59;100.00
29315;BME280;16320;53.954;9.506;2023-04-25T08:38:56;100444.50;;;6.88;100.00
29315;BME280;16320;53.954;9.506;2023-04-25T08:42:02;100442.78;;;7.09;100.00
29315;BME280;16320;53.954;9.506;2023-04-25T08:45:11;100450.38;;;7.36;100.00
29315;BME280;16320;53.954;9.506;2023-04-25T08:48:17;100462.13;;;7.46;100.00
29315;BME280;16320;53.954;9.506;2023-04-25T08:51:22;100437.16;;;7.60;100.00
29315;BME280;16320;53.954;9.506;2023-04-25T08:54:32;100451.88;;;7.81;100.00
29315;BME280;16320;53.954;9.506;2023-04-25T08:57:43;100449.63;;;7.93;100.00
29315;BME280;16320;53.954;9.506;2023-04-25T09:00:50;100451.84;;;8.02;100.00
29315;BME280;16320;53.954;9.506;2023-04-25T09:03:55;100450.63;;;7.90;100.00
29315;BME280;16320;53.954;9.506;2023-04-25T09:07:01;100448.84;;;7.91;100.00
29315;BME280;16320;53.954;9.506;2023-04-25T09:10:06;100468.38;;;7.83;100.00
29315;BME280;16320;53.954;9.506;2023-04-25T09:13:13;100468.88;;;7.92;100.00
29315;BME280;16320;53.954;9.506;2023-04-25T09:16:19;100469.44;;;7.98;100.00
29315;BME280;16320;53.954;9.506;2023-04-25T09:19:37;100452.34;;;8.10;100.00
29315;BME280;16320;53.954;9.506;2023-04-25T09:22:46;100458.19;;;8.15;100.00
29315;BME280;16320;53.954;9.506;2023-04-25T09:25:53;100474.41;;;8.42;100.00
29315;BME280;16320;53.954;9.506;2023-04-25T09:29:07;100499.28;;;8.13;100.00
29315;BME280;16320;53.954;9.506;2023-04-25T09:32:19;100535.28;;;7.46;100.00
29315;BME280;16320;53.954;9.506;2023-04-25T09:35:25;100542.72;;;6.69;100.00
29315;BME280;16320;53.954;9.506;2023-04-25T09:38:42;100547.25;;;6.18;100.00
29315;BME280;16320;53.954;9.506;2023-04-25T09:41:47;100562.41;;;6.30;100.00
29315;BME280;16320;53.954;9.506;2023-04-25T09:44:56;100574.91;;;6.46;100.00
29315;BME280;16320;53.954;9.506;2023-04-25T09:48:03;100577.69;;;6.65;100.00
29315;BME280;16320;53.954;9.506;2023-04-25T09:51:13;100574.66;;;6.75;100.00
29315;BME280;16320;53.954;9.506;2023-04-25T09:54:18;100578.56;;;7.09;100.00
29315;BME280;16320;53.954;9.506;2023-04-25T09:57:25;100569.09;;;7.29;100.00
29315;BME280;16320;53.954;9.506;2023-04-25T10:00:31;100570.81;;;7.50;100.00
29315;BME280;16320;53.954;9.506;2023-04-25T10:03:38;100559.31;;;7.77;100.00
29315;BME280;16320;53.954;9.506;2023-04-25T10:06:49;100553.31;;;7.73;100.00
29315;BME280;16320;53.954;9.506;2023-04-25T10:10:02;100546.28;;;7.75;100.00
29315;BME280;16320;53.954;9.506;2023-04-25T10:13:08;100536.09;;;7.90;100.00
29315;BME280;16320;53.954;9.506;2023-04-25T10:16:13;100548.94;;;7.94;100.00
29315;BME280;16320;53.954;9.506;2023-04-25T10:19:18;100542.41;;;8.23;100.00
29315;BME280;16320;53.954;9.506;2023-04-25T10:22:36;100532.84;;;8.43;100.00
29315;BME280;16320;53.954;9.506;2023-04-25T10:25:42;100535.97;;;8.51;100.00
29315;BME280;16320;53.954;9.506;2023-04-25T10:28:58;100525.69;;;8.66;100.00
29315;BME280;16320;53.954;9.506;2023-04-25T10:32:03;100526.78;;;8.81;100.00
29315;BME280;16320;53.954;9.506;2023-04-25T10:35:29;100532.38;;;8.73;100.00
29315;BME280;16320;53.954;9.506;2023-04-25T10:38:37;100539.25;;;8.56;100.00
29315;BME280;16320;53.954;9.506;2023-04-25T10:41:51;100545.97;;;8.22;100.00
29315;BME280;16320;53.954;9.506;2023-04-25T10:45:06;100559.13;;;7.80;100.00
29315;BME280;16320;53.954;9.506;2023-04-25T10:51:33;100577.50;;;8.19;100.00
29315;BME280;16320;53.954;9.506;2023-04-25T10:55:04;100592.44;;;8.17;100.00
29315;BME280;16320;53.954;9.506;2023-04-25T10:58:09;100589.38;;;8.07;100.00
29315;BME280;16320;53.954;9.506;2023-04-25T11:01:20;100598.84;;;7.90;100.00
29315;BME280;16320;53.954;9.506;2023-04-25T11:04:32;100607.47;;;7.92;100.00
29315;BME280;16320;53.954;9.506;2023-04-25T11:07:53;100602.25;;;7.92;100.00
29315;BME280;16320;53.954;9.506;2023-04-25T11:11:11;100600.97;;;8.21;100.00
29315;BME280;16320;53.954;9.506;2023-04-25T11:14:16;100594.75;;;8.23;100.00
29315;BME280;16320;53.954;9.506;2023-04-25T11:17:21;100588.63;;;8.04;100.00
29315;BME280;16320;53.954;9.506;2023-04-25T11:20:29;100595.31;;;7.91;100.00
29315;BME280;16320;53.954;9.506;2023-04-25T11:23:33;100607.53;;;7.90;100.00
29315;BME280;16320;53.954;9.506;2023-04-25T11:26:37;100584.16;;;8.27;100.00
29315;BME280;16320;53.954;9.506;2023-04-25T11:29:42;100571.13;;;8.46;100.00
29315;BME280;16320;53.954;9.506;2023-04-25T11:32:47;100580.69;;;8.47;100.00
29315;BME280;16320;53.954;9.506;2023-04-25T11:35:54;100568.38;;;8.49;100.00
29315;BME280;16320;53.954;9.506;2023-04-25T11:39:01;100581.66;;;8.44;100.00
29315;BME280;16320;53.954;9.506;2023-04-25T11:42:06;100590.91;;;8.12;100.00
29315;BME280;16320;53.954;9.506;2023-04-25T11:45:17;100608.56;;;8.06;100.00
29315;BME280;16320;53.954;9.506;2023-04-25T11:48:23;100614.00;;;8.22;100.00
29315;BME280;16320;53.954;9.506;2023-04-25T11:51:29;100595.47;;;8.67;100.00
29315;BME280;16320;53.954;9.506;2023-04-25T11:54:38;100596.88;;;8.74;100.00
29315;BME280;16320;53.954;9.506;2023-04-25T11:57:44;100608.22;;;8.74;100.00
29315;BME280;16320;53.954;9.506;2023-04-25T12:00:49;100622.44;;;8.50;100.00
29315;BME280;16320;53.954;9.506;2023-04-25T12:03:54;100650.59;;;7.81;100.00
29315;BME280;16320;53.954;9.506;2023-04-25T12:06:59;100649.66;;;7.18;100.00
29315;BME280;16320;53.954;9.506;2023-04-25T12:10:07;100650.28;;;7.46;100.00
29315;BME280;16320;53.954;9.506;2023-04-25T12:13:38;100656.13;;;8.16;100.00
29315;BME280;16320;53.954;9.506;2023-04-25T12:16:43;100656.78;;;8.42;100.00
29315;BME280;16320;53.954;9.506;2023-04-25T12:19:48;100643.50;;;9.42;100.00
29315;BME280;16320;53.954;9.506;2023-04-25T12:22:52;100630.75;;;9.88;100.00
29315;BME280;16320;53.954;9.506;2023-04-25T12:25:57;100605.50;;;9.68;100.00
29315;BME280;16320;53.954;9.506;2023-04-25T12:29:25;100612.53;;;10.02;100.00
29315;BME280;16320;53.954;9.506;2023-04-25T12:32:35;100610.44;;;10.60;100.00
29315;BME280;16320;53.954;9.506;2023-04-25T12:35:40;100628.03;;;10.24;100.00
29315;BME280;16320;53.954;9.506;2023-04-25T12:38:47;100608.81;;;10.41;100.00
29315;BME280;16320;53.954;9.506;2023-04-25T12:41:53;100615.47;;;10.96;100.00
29315;BME280;16320;53.954;9.506;2023-04-25T12:45:00;100627.19;;;10.91;100.00
29315;BME280;16320;53.954;9.506;2023-04-25T12:48:05;100633.66;;;10.52;100.00
29315;BME280;16320;53.954;9.506;2023-04-25T12:51:09;100641.00;;;10.45;100.00
29315;BME280;16320;53.954;9.506;2023-04-25T12:54:13;100629.81;;;10.41;100.00
29315;BME280;16320;53.954;9.506;2023-04-25T12:57:19;100629.09;;;10.38;100.00
29315;BME280;16320;53.954;9.506;2023-04-25T13:00:24;100641.09;;;9.91;100.00
29315;BME280;16320;53.954;9.506;2023-04-25T13:03:29;100646.94;;;9.61;100.00
29315;BME280;16320;53.954;9.506;2023-04-25T13:06:34;100660.94;;;9.43;100.00
29315;BME280;16320;53.954;9.506;2023-04-25T13:09:40;100667.22;;;9.21;100.00
29315;BME280;16320;53.954;9.506;2023-04-25T13:12:44;100673.88;;;8.90;100.00
29315;BME280;16320;53.954;9.506;2023-04-25T13:15:50;100685.69;;;9.18;100.00
29315;BME280;16320;53.954;9.506;2023-04-25T13:18:54;100683.53;;;9.82;100.00
29315;BME280;16320;53.954;9.506;2023-04-25T13:22:00;100684.16;;;10.04;100.00
29315;BME280;16320;53.954;9.506;2023-04-25T13:25:08;100674.94;;;9.61;100.00
29315;BME280;16320;53.954;9.506;2023-04-25T13:28:14;100675.38;;;9.32;100.00
29315;BME280;16320;53.954;9.506;2023-04-25T13:31:19;100668.09;;;9.76;100.00
29315;BME280;16320;53.954;9.506;2023-04-25T13:34:23;100670.09;;;10.05;100.00
29315;BME280;16320;53.954;9.506;2023-04-25T13:37:28;100667.41;;;9.72;100.00
29315;BME280;16320;53.954;9.506;2023-04-25T13:40:34;100661.47;;;9.68;100.00
29315;BME280;16320;53.954;9.506;2023-04-25T13:43:39;100672.41;;;10.12;100.00
29315;BME280;16320;53.954;9.506;2023-04-25T13:46:43;100678.44;;;10.14;100.00
29315;BME280;16320;53.954;9.506;2023-04-25T13:49:50;100678.00;;;9.88;100.00
29315;BME280;16320;53.954;9.506;2023-04-25T13:52:55;100671.56;;;10.79;100.00
29315;BME280;16320;53.954;9.506;2023-04-25T13:55:59;100672.13;;;10.69;100.00
29315;BME280;16320;53.954;9.506;2023-04-25T13:59:04;100664.16;;;11.04;100.00
29315;BME280;16320;53.954;9.506;2023-04-25T14:02:09;100682.56;;;10.70;100.00
29315;BME280;16320;53.954;9.506;2023-04-25T14:05:13;100698.31;;;9.83;100.00
29315;BME280;16320;53.954;9.506;2023-04-25T14:08:19;100707.56;;;9.17;100.00
29315;BME280;16320;53.954;9.506;2023-04-25T14:11:24;100701.75;;;8.91;100.00
29315;BME280;16320;53.954;9.506;2023-04-25T14:14:29;100706.75;;;8.77;100.00
29315;BME280;16320;53.954;9.506;2023-04-25T14:17:33;100702.94;;;9.03;100.00
29315;BME280;16320;53.954;9.506;2023-04-25T14:20:38;100699.19;;;9.47;100.00
29315;BME280;16320;53.954;9.506;2023-04-25T14:23:42;100702.31;;;9.17;100.00
29315;BME280;16320;53.954;9.506;2023-04-25T14:26:46;100697.00;;;9.00;100.00
29315;BME280;16320;53.954;9.506;2023-04-25T14:29:51;100704.69;;;8.84;100.00
29315;BME280;16320;53.954;9.506;2023-04-25T14:32:55;100698.63;;;8.83;100.00
29315;BME280;16320;53.954;9.506;2023-04-25T14:36:01;100714.50;;;8.59;100.00
29315;BME280;16320;53.954;9.506;2023-04-25T14:39:06;100697.84;;;9.57;100.00
29315;BME280;16320;53.954;9.506;2023-04-25T14:42:12;100711.69;;;9.96;100.00
29315;BME280;16320;53.954;9.506;2023-04-25T14:45:16;100714.56;;;10.26;100.00
29315;BME280;16320;53.954;9.506;2023-04-25T14:48:21;100716.34;;;10.43;100.00
29315;BME280;16320;53.954;9.506;2023-04-25T14:51:26;100714.09;;;10.00;100.00
29315;BME280;16320;53.954;9.506;2023-04-25T14:54:30;100717.47;;;10.02;100.00
29315;BME280;16320;53.954;9.506;2023-04-25T14:57:35;100717.06;;;10.47;100.00
29315;BME280;16320;53.954;9.506;2023-04-25T15:00:39;100713.50;;;10.98;100.00
29315;BME280;16320;53.954;9.506;2023-04-25T15:03:43;100717.69;;;10.85;100.00
29315;BME280;16320;53.954;9.506;2023-04-25T15:06:48;100722.50;;;9.53;100.00
29315;BME280;16320;53.954;9.506;2023-04-25T15:09:53;100727.91;;;9.12;100.00
29315;BME280;16320;53.954;9.506;2023-04-25T15:12:57;100728.63;;;9.71;100.00
29315;BME280;16320;53.954;9.506;2023-04-25T15:16:14;100718.09;;;10.25;100.00
29315;BME280;16320;53.954;9.506;2023-04-25T15:19:37;100716.19;;;10.11;100.00
29315;BME280;16320;53.954;9.506;2023-04-25T15:22:44;100718.09;;;10.25;100.00
29315;BME280;16320;53.954;9.506;2023-04-25T15:25:50;100720.47;;;10.49;100.00
29315;BME280;16320;53.954;9.506;2023-04-25T15:28:57;100724.91;;;10.29;100.00
29315;BME280;16320;53.954;9.506;2023-04-25T15:32:07;100729.56;;;10.24;100.00
29315;BME280;16320;53.954;9.506;2023-04-25T15:35:13;100726.19;;;9.85;100.00
29315;BME280;16320;53.954;9.506;2023-04-25T15:38:18;100734.41;;;9.22;100.00
29315;BME280;16320;53.954;9.506;2023-04-25T15:41:24;100767.84;;;8.77;100.00
29315;BME280;16320;53.954;9.506;2023-04-25T15:44:31;100785.81;;;8.22;100.00
29315;BME280;16320;53.954;9.506;2023-04-25T15:47:39;100792.84;;;7.54;100.00
29315;BME280;16320;53.954;9.506;2023-04-25T15:50:45;100816.25;;;7.09;100.00
29315;BME280;16320;53.954;9.506;2023-04-25T15:53:50;100829.00;;;6.93;100.00
29315;BME280;16320;53.954;9.506;2023-04-25T15:56:55;100836.13;;;6.63;100.00
29315;BME280;16320;53.954;9.506;2023-04-25T16:00:00;100848.88;;;6.46;100.00
29315;BME280;16320;53.954;9.506;2023-04-25T16:03:16;100852.53;;;6.67;100.00
29315;BME280;16320;53.954;9.506;2023-04-25T16:06:28;100860.81;;;6.80;100.00
29315;BME280;16320;53.954;9.506;2023-04-25T16:09:35;100857.41;;;6.77;100.00
29315;BME280;16320;53.954;9.506;2023-04-25T16:12:41;100848.75;;;6.75;100.00